createdAt,value
2023-04-04T00:00:27.308Z,5.40
2023-04-04T00:02:54.137Z,6.60
2023-04-04T00:05:21.047Z,6.50
2023-04-04T00:07:48.008Z,5.40
2023-04-04T00:10:15.050Z,4.90
2023-04-04T00:12:42.609Z,5.50
2023-04-04T00:15:09.938Z,5.40
2023-04-04T00:17:36.612Z,6.90
2023-04-04T00:20:04.489Z,4.00
2023-04-04T00:22:32.259Z,4.20
2023-04-04T00:24:59.143Z,5.20
2023-04-04T00:27:26.374Z,5.30
2023-04-04T00:29:53.454Z,6.40
2023-04-04T00:32:20.431Z,9.20
2023-04-04T00:34:52.308Z,6.90
2023-04-04T00:37:18.753Z,7.60
2023-04-04T00:39:45.391Z,6.00
2023-04-04T00:42:12.160Z,5.60
2023-04-04T00:44:38.986Z,5.70
2023-04-04T00:47:17.146Z,6.50
2023-04-04T00:49:46.630Z,5.50
2023-04-04T00:52:13.755Z,7.80
2023-04-04T00:54:42.309Z,6.00
2023-04-04T00:57:08.837Z,5.50
2023-04-04T00:59:36.340Z,4.80
2023-04-04T01:02:03.229Z,6.10
2023-04-04T01:04:30.501Z,6.20
2023-04-04T01:06:57.161Z,7.40
2023-04-04T01:09:24.559Z,9.80
2023-04-04T01:11:52.479Z,5.20
2023-04-04T01:14:19.010Z,6.70
2023-04-04T01:16:46.686Z,5.70
2023-04-04T01:19:28.938Z,6.40
2023-04-04T01:21:57.276Z,6.10
2023-04-04T01:24:26.154Z,5.50
2023-04-04T01:26:52.976Z,6.00
2023-04-04T01:29:20.563Z,6.40
2023-04-04T01:31:56.276Z,5.80
2023-04-04T01:34:47.061Z,6.10
2023-04-04T01:37:27.047Z,4.10
2023-04-04T01:40:08.772Z,6.80
2023-04-04T01:42:36.896Z,6.90
2023-04-04T01:45:05.879Z,7.20
2023-04-04T01:47:41.727Z,4.70
2023-04-04T01:50:10.521Z,4.60
2023-04-04T01:52:37.747Z,7.90
2023-04-04T01:55:04.528Z,6.50
2023-04-04T01:57:31.393Z,7.50
2023-04-04T01:59:58.043Z,7.70
2023-04-04T02:02:27.053Z,5.80
2023-04-04T02:04:53.864Z,6.80
2023-04-04T02:07:20.740Z,5.80
2023-04-04T02:09:47.473Z,5.10
2023-04-04T02:12:14.142Z,7.10
2023-04-04T02:14:41.304Z,5.80
2023-04-04T02:17:08.103Z,4.60
2023-04-04T02:19:35.639Z,5.30
2023-04-04T02:22:02.678Z,7.10
2023-04-04T02:24:29.332Z,6.60
2023-04-04T02:26:56.379Z,4.30
2023-04-04T02:29:23.455Z,6.60
2023-04-04T02:31:52.733Z,5.60
2023-04-04T02:34:19.931Z,5.30
2023-04-04T02:36:46.522Z,6.80
2023-04-04T02:39:13.097Z,7.20
2023-04-04T02:41:39.836Z,5.20
2023-04-04T02:44:06.492Z,6.80
2023-04-04T02:46:33.371Z,6.10
2023-04-04T02:49:01.998Z,6.10
2023-04-04T02:51:33.525Z,6.60
2023-04-04T02:54:02.509Z,5.50
2023-04-04T02:56:29.077Z,8.00
2023-04-04T02:58:55.897Z,7.50
2023-04-04T03:01:22.500Z,6.90
2023-04-04T03:03:49.758Z,6.30
2023-04-04T03:06:16.518Z,6.50
2023-04-04T03:08:43.237Z,5.20
2023-04-04T03:11:09.731Z,5.70
2023-04-04T03:13:36.278Z,5.30
2023-04-04T03:16:06.459Z,4.60
2023-04-04T03:18:34.719Z,6.00
2023-04-04T03:21:01.295Z,7.50
2023-04-04T03:23:27.944Z,5.90
2023-04-04T03:25:55.273Z,7.10
2023-04-04T03:28:22.832Z,8.00
2023-04-04T03:30:50.088Z,8.90
2023-04-04T03:33:16.762Z,6.80
2023-04-04T03:35:43.434Z,6.00
2023-04-04T03:38:10.595Z,7.00
2023-04-04T03:40:37.747Z,7.60
2023-04-04T03:43:07.435Z,6.50
2023-04-04T03:45:35.892Z,7.80
2023-04-04T03:48:02.994Z,6.50
2023-04-04T03:50:30.133Z,6.80
2023-04-04T03:52:58.604Z,6.70
2023-04-04T03:55:26.240Z,5.80
2023-04-04T03:57:52.900Z,7.70
2023-04-04T04:00:19.711Z,7.30
2023-04-04T04:02:46.468Z,8.40
2023-04-04T04:05:13.427Z,7.20
2023-04-04T04:07:43.368Z,6.00
2023-04-04T04:10:10.360Z,7.40
2023-04-04T04:12:37.257Z,7.20
2023-04-04T04:15:04.012Z,6.70
2023-04-04T04:17:30.605Z,6.50
2023-04-04T04:19:57.495Z,6.80
2023-04-04T04:22:24.153Z,6.30
2023-04-04T04:24:52.974Z,8.10
2023-04-04T04:27:19.644Z,6.90
2023-04-04T04:29:46.191Z,7.80
2023-04-04T04:32:17.259Z,5.70
2023-04-04T04:34:43.768Z,7.40
2023-04-04T04:37:10.805Z,6.80
2023-04-04T04:39:37.308Z,5.80
2023-04-04T04:42:04.050Z,5.90
2023-04-04T04:44:30.708Z,7.30
2023-04-04T04:46:57.354Z,5.50
2023-04-04T04:49:24.169Z,6.70
2023-04-04T04:51:51.167Z,7.50
2023-04-04T04:54:17.945Z,5.30
2023-04-04T04:56:44.797Z,5.90
2023-04-04T04:59:12.905Z,7.40
2023-04-04T05:01:39.558Z,6.70
2023-04-04T05:04:06.150Z,5.60
2023-04-04T05:06:32.710Z,5.20
2023-04-04T05:08:59.282Z,7.50
2023-04-04T05:11:26.379Z,7.50
2023-04-04T05:13:53.068Z,10.90
2023-04-04T05:16:20.521Z,6.40
2023-04-04T05:18:47.237Z,10.10
2023-04-04T05:21:13.794Z,8.50
2023-04-04T05:23:40.538Z,10.60
2023-04-04T05:26:07.504Z,9.10
2023-04-04T05:28:34.907Z,11.10
2023-04-04T05:31:01.543Z,6.00
2023-04-04T05:33:31.632Z,8.40
2023-04-04T05:36:00.711Z,7.80
2023-04-04T05:38:27.527Z,6.80
2023-04-04T05:40:54.747Z,8.70
2023-04-04T05:43:21.444Z,10.30
2023-04-04T05:45:47.954Z,8.70
2023-04-04T05:48:15.537Z,11.00
2023-04-04T05:50:45.611Z,9.20
2023-04-04T05:53:12.456Z,11.20
2023-04-04T05:55:39.093Z,13.70
2023-04-04T05:58:05.903Z,11.30
2023-04-04T06:00:35.131Z,12.30
2023-04-04T06:03:01.984Z,13.60
2023-04-04T06:05:28.713Z,10.60
2023-04-04T06:07:55.444Z,7.90
2023-04-04T06:10:22.140Z,10.50
2023-04-04T06:12:48.769Z,6.70
2023-04-04T06:15:15.591Z,9.30
2023-04-04T06:17:42.444Z,8.20
2023-04-04T06:20:11.951Z,6.30
2023-04-04T06:22:38.446Z,9.30
2023-04-04T06:25:05.439Z,10.20
2023-04-04T06:27:31.959Z,9.50
2023-04-04T06:29:58.920Z,7.70
2023-04-04T06:32:28.150Z,12.00
2023-04-04T06:34:54.676Z,7.00
2023-04-04T06:37:24.393Z,8.10
2023-04-04T06:39:52.253Z,7.40
2023-04-04T06:42:18.926Z,7.20
2023-04-04T06:44:45.428Z,7.60
2023-04-04T06:47:12.574Z,4.70
2023-04-04T06:49:39.109Z,4.70
2023-04-04T06:52:05.629Z,6.20
2023-04-04T06:54:32.363Z,5.40
2023-04-04T06:56:59.013Z,5.90
2023-04-04T06:59:25.581Z,5.40
2023-04-04T07:01:52.149Z,6.30
2023-04-04T07:04:20.324Z,5.30
2023-04-04T07:06:46.827Z,6.10
2023-04-04T07:09:26.015Z,6.80
2023-04-04T07:11:55.501Z,6.90
2023-04-04T07:14:25.270Z,7.90
2023-04-04T07:16:52.682Z,5.00
2023-04-04T07:19:28.652Z,6.50
2023-04-04T07:21:56.270Z,7.20
2023-04-04T07:24:23.336Z,6.60
2023-04-04T07:26:49.864Z,4.90
2023-04-04T07:29:16.472Z,4.10
2023-04-04T07:31:43.033Z,5.40
2023-04-04T07:34:09.644Z,4.30
2023-04-04T07:36:36.654Z,4.60
2023-04-04T07:39:03.659Z,5.90
2023-04-04T07:41:30.606Z,5.10
2023-04-04T07:43:57.140Z,6.60
2023-04-04T07:46:23.880Z,5.80
2023-04-04T07:48:50.650Z,6.10
2023-04-04T07:51:17.521Z,8.60
2023-04-04T07:53:44.413Z,7.70
2023-04-04T07:56:11.085Z,7.60
2023-04-04T07:58:37.616Z,6.10
2023-04-04T08:01:04.150Z,8.30
2023-04-04T08:03:30.848Z,9.10
2023-04-04T08:05:57.592Z,8.10
2023-04-04T08:08:24.095Z,7.90
2023-04-04T08:10:50.760Z,7.00
2023-04-04T08:13:17.328Z,5.40
2023-04-04T08:15:44.258Z,6.20
2023-04-04T08:18:11.180Z,7.30
2023-04-04T08:20:38.245Z,6.20
2023-04-04T08:23:04.936Z,5.40
2023-04-04T08:25:31.469Z,6.40
2023-04-04T08:27:58.133Z,6.30
2023-04-04T08:30:24.739Z,6.50
2023-04-04T08:32:53.454Z,4.20
2023-04-04T08:35:19.935Z,6.00
2023-04-04T08:37:46.470Z,5.00
2023-04-04T08:40:16.435Z,4.60
2023-04-04T08:42:46.093Z,3.80
2023-04-04T08:45:17.098Z,5.60
2023-04-04T08:47:44.657Z,4.00
2023-04-04T08:50:12.283Z,3.00
2023-04-04T08:52:40.674Z,3.70
2023-04-04T08:55:11.114Z,3.10
2023-04-04T08:57:38.318Z,3.90
2023-04-04T09:00:09.229Z,4.10
2023-04-04T09:02:57.803Z,2.80
2023-04-04T09:05:25.671Z,3.60
2023-04-04T09:07:53.790Z,2.60
2023-04-04T09:10:21.139Z,3.40
2023-04-04T09:12:48.971Z,4.30
2023-04-04T09:15:15.971Z,3.00
2023-04-04T09:17:42.689Z,2.90
2023-04-04T09:20:34.958Z,3.80
2023-04-04T09:23:02.015Z,2.50
2023-04-04T09:25:28.452Z,2.50
2023-04-04T09:27:56.198Z,1.90
2023-04-04T09:30:22.772Z,3.20
2023-04-04T09:32:49.604Z,4.50
2023-04-04T09:35:16.350Z,2.30
2023-04-04T09:37:44.255Z,2.30
2023-04-04T09:40:11.551Z,2.20
2023-04-04T09:42:38.831Z,3.30
2023-04-04T09:45:06.486Z,3.50
2023-04-04T09:47:33.688Z,2.70
2023-04-04T09:50:01.612Z,2.90
2023-04-04T09:52:33.293Z,3.30
2023-04-04T09:55:01.576Z,2.90
2023-04-04T09:57:30.485Z,2.60
2023-04-04T10:00:02.443Z,3.10
2023-04-04T10:02:31.124Z,1.90
2023-04-04T10:05:06.061Z,3.30
2023-04-04T10:07:33.930Z,2.50
2023-04-04T10:10:09.019Z,3.20
2023-04-04T10:12:37.770Z,2.90
2023-04-04T10:15:04.768Z,2.80
2023-04-04T10:17:36.926Z,3.10
2023-04-04T10:20:11.702Z,3.50
2023-04-04T10:22:39.681Z,3.20
2023-04-04T10:25:07.683Z,2.80
2023-04-04T10:27:34.539Z,4.50
2023-04-04T10:30:01.527Z,3.00
2023-04-04T10:32:38.452Z,2.70
2023-04-04T10:35:10.943Z,3.80
2023-04-04T10:37:57.637Z,6.60
2023-04-04T10:40:28.155Z,2.30
2023-04-04T10:42:57.768Z,2.80
2023-04-04T10:45:25.819Z,3.50
2023-04-04T10:47:53.793Z,2.30
2023-04-04T10:50:20.892Z,3.20
2023-04-04T10:52:47.893Z,2.20
2023-04-04T10:55:15.834Z,2.70
2023-04-04T10:57:45.560Z,2.80
2023-04-04T11:00:18.741Z,2.20
2023-04-04T11:03:02.516Z,3.10
2023-04-04T11:05:57.235Z,2.70
2023-04-04T11:08:26.307Z,3.90
2023-04-04T11:10:54.759Z,2.60
2023-04-04T11:13:32.564Z,3.70
2023-04-04T11:16:01.837Z,2.20
2023-04-04T11:18:41.604Z,3.70
2023-04-04T11:21:27.370Z,3.40
2023-04-04T11:24:04.675Z,2.60
2023-04-04T11:26:31.208Z,3.90
2023-04-04T11:28:59.483Z,2.50
2023-04-04T11:31:47.424Z,4.20
2023-04-04T11:34:16.286Z,2.80
2023-04-04T11:36:44.946Z,2.50
2023-04-04T11:39:31.000Z,2.80
2023-04-04T11:42:05.300Z,2.90
2023-04-04T11:44:33.858Z,3.70
2023-04-04T11:47:04.235Z,2.30
2023-04-04T11:49:35.503Z,2.20
2023-04-04T11:52:13.129Z,3.10
2023-04-04T11:54:41.770Z,3.00
2023-04-04T11:57:12.083Z,3.10
2023-04-04T11:59:57.286Z,2.70
2023-04-04T12:02:31.891Z,4.00
2023-04-04T12:04:59.767Z,2.30
2023-04-04T12:07:28.558Z,2.80
2023-04-04T12:09:57.428Z,2.10
2023-04-04T12:12:24.503Z,3.50
2023-04-04T12:14:51.330Z,3.00
2023-04-04T12:17:17.940Z,2.40
2023-04-04T12:19:44.693Z,2.50
2023-04-04T12:22:11.833Z,3.70
2023-04-04T12:24:38.653Z,2.60
2023-04-04T12:27:06.607Z,2.80
2023-04-04T12:29:37.650Z,4.00
2023-04-04T12:32:06.558Z,2.90
2023-04-04T12:34:34.270Z,3.60
2023-04-04T12:37:02.747Z,2.80
2023-04-04T12:39:30.391Z,2.60
2023-04-04T12:42:04.040Z,3.50
2023-04-04T12:44:33.040Z,4.00
2023-04-04T12:47:02.280Z,2.90
2023-04-04T12:49:55.477Z,2.80
2023-04-04T12:52:27.009Z,2.80
2023-04-04T12:55:06.902Z,3.40
2023-04-04T12:57:36.723Z,2.50
2023-04-04T13:00:06.440Z,2.70
2023-04-04T13:02:36.385Z,2.10
2023-04-04T13:05:03.868Z,2.50
2023-04-04T13:07:47.376Z,4.40
2023-04-04T13:10:16.411Z,2.70
2023-04-04T13:13:31.542Z,2.70
2023-04-04T13:15:58.340Z,3.00
2023-04-04T13:18:26.535Z,2.10
2023-04-04T13:20:54.406Z,2.70
2023-04-04T13:23:22.234Z,3.10
2023-04-04T13:25:48.999Z,3.30
2023-04-04T13:28:15.798Z,2.70
2023-04-04T13:30:49.233Z,3.30
2023-04-04T13:33:19.413Z,3.70
2023-04-04T13:35:46.709Z,3.20
2023-04-04T13:38:13.932Z,2.40
2023-04-04T13:40:40.810Z,3.30
2023-04-04T13:43:07.583Z,1.90
2023-04-04T13:45:35.028Z,2.50
2023-04-04T13:48:04.095Z,3.60
2023-04-04T13:50:32.635Z,2.60
2023-04-04T13:52:59.182Z,3.70
2023-04-04T13:55:25.564Z,2.10
2023-04-04T13:57:52.156Z,3.40
2023-04-04T14:00:19.004Z,3.10
2023-04-04T14:02:45.471Z,2.60
2023-04-04T14:05:11.994Z,2.20
2023-04-04T14:07:38.863Z,3.10
2023-04-04T14:10:06.110Z,2.90
2023-04-04T14:12:32.624Z,2.80
2023-04-04T14:14:59.500Z,2.80
2023-04-04T14:17:26.275Z,2.50
2023-04-04T14:19:52.977Z,2.60
2023-04-04T14:22:19.371Z,1.60
2023-04-04T14:24:46.060Z,2.00
2023-04-04T14:27:12.759Z,2.20
2023-04-04T14:29:39.299Z,1.70
2023-04-04T14:32:06.114Z,2.50
2023-04-04T14:34:32.896Z,2.30
2023-04-04T14:37:00.025Z,2.20
2023-04-04T14:39:26.588Z,2.30
2023-04-04T14:41:53.440Z,2.30
2023-04-04T14:44:21.909Z,1.80
2023-04-04T14:46:51.814Z,2.00
2023-04-04T14:49:18.991Z,3.00
2023-04-04T14:51:45.799Z,2.20
2023-04-04T14:54:12.338Z,1.80
2023-04-04T14:56:38.993Z,2.90
2023-04-04T14:59:06.485Z,2.50
2023-04-04T15:01:33.211Z,2.90
2023-04-04T15:03:59.794Z,3.60
2023-04-04T15:06:27.322Z,2.10
2023-04-04T15:08:53.688Z,1.40
2023-04-04T15:11:20.386Z,2.00
2023-04-04T15:13:46.849Z,2.70
2023-04-04T15:16:13.341Z,1.70
2023-04-04T15:18:39.907Z,2.50
2023-04-04T15:21:06.650Z,1.50
2023-04-04T15:23:33.402Z,1.80
2023-04-04T15:26:00.169Z,1.80
2023-04-04T15:28:27.272Z,2.60
2023-04-04T15:30:53.980Z,2.50
2023-04-04T15:33:20.480Z,2.50
2023-04-04T15:35:47.028Z,1.60
2023-04-04T15:38:13.619Z,2.20
2023-04-04T15:40:40.305Z,2.30
2023-04-04T15:43:07.341Z,2.60
2023-04-04T15:45:33.739Z,2.90
2023-04-04T15:48:00.958Z,2.50
2023-04-04T15:50:27.387Z,3.50
2023-04-04T15:52:54.147Z,2.90
2023-04-04T15:55:22.055Z,2.50
2023-04-04T15:57:48.811Z,3.60
2023-04-04T16:00:16.921Z,2.90
2023-04-04T16:02:44.140Z,2.40
2023-04-04T16:05:11.214Z,2.30
2023-04-04T16:07:38.152Z,2.00
2023-04-04T16:10:05.195Z,4.50
2023-04-04T16:12:32.297Z,3.50
2023-04-04T16:14:59.173Z,2.40
2023-04-04T16:17:26.198Z,2.70
2023-04-04T16:19:52.824Z,3.90
2023-04-04T16:22:19.528Z,3.50
2023-04-04T16:24:46.268Z,4.40
2023-04-04T16:27:13.041Z,3.00
2023-04-04T16:29:39.513Z,4.40
2023-04-04T16:32:08.220Z,3.90
2023-04-04T16:34:36.810Z,3.90
2023-04-04T16:37:04.284Z,2.90
2023-04-04T16:39:30.942Z,4.00
2023-04-04T16:41:57.858Z,3.80
2023-04-04T16:44:24.462Z,3.00
2023-04-04T16:46:51.088Z,3.00
2023-04-04T16:49:17.589Z,4.50
2023-04-04T16:51:44.093Z,4.40
2023-04-04T16:54:11.220Z,3.50
2023-04-04T16:56:37.853Z,3.50
2023-04-04T16:59:04.573Z,4.10
2023-04-04T17:01:31.952Z,5.40
2023-04-04T17:03:59.001Z,2.90
2023-04-04T17:06:25.746Z,3.30
2023-04-04T17:08:52.448Z,2.90
2023-04-04T17:11:18.916Z,3.30
2023-04-04T17:13:46.123Z,3.50
2023-04-04T17:16:12.792Z,5.50
2023-04-04T17:18:39.430Z,3.20
2023-04-04T17:21:06.397Z,3.90
2023-04-04T17:23:33.774Z,3.70
2023-04-04T17:26:00.511Z,3.60
2023-04-04T17:28:27.031Z,3.70
2023-04-04T17:30:53.558Z,4.80
2023-04-04T17:33:21.309Z,3.70
2023-04-04T17:35:48.356Z,3.20
2023-04-04T17:38:14.906Z,3.60
2023-04-04T17:40:41.748Z,3.60
2023-04-04T17:43:09.017Z,4.40
2023-04-04T17:45:35.608Z,2.40
2023-04-04T17:48:02.208Z,5.30
2023-04-04T17:50:28.765Z,3.10
2023-04-04T17:52:55.384Z,5.60
2023-04-04T17:55:22.952Z,3.40
2023-04-04T17:57:49.542Z,4.90
2023-04-04T18:00:16.538Z,2.90
2023-04-04T18:02:43.244Z,4.10
2023-04-04T18:05:10.556Z,4.50
2023-04-04T18:07:37.209Z,4.60
2023-04-04T18:10:04.039Z,3.10
2023-04-04T18:12:30.665Z,5.00
2023-04-04T18:14:57.579Z,3.70
2023-04-04T18:17:24.759Z,2.80
2023-04-04T18:19:51.483Z,2.90
2023-04-04T18:22:18.159Z,4.20
2023-04-04T18:24:45.880Z,2.40
2023-04-04T18:27:14.351Z,2.70
2023-04-04T18:29:42.987Z,3.20
2023-04-04T18:32:09.623Z,3.30
2023-04-04T18:34:36.128Z,2.70
2023-04-04T18:37:02.741Z,5.00
2023-04-04T18:39:29.215Z,4.20
2023-04-04T18:41:56.630Z,4.00
2023-04-04T18:44:23.283Z,5.20
2023-04-04T18:46:49.889Z,5.40
2023-04-04T18:49:16.443Z,4.00
2023-04-04T18:51:43.038Z,6.00
2023-04-04T18:54:09.565Z,3.50
2023-04-04T18:56:37.855Z,4.80
2023-04-04T18:59:05.465Z,5.70
2023-04-04T19:01:33.068Z,7.50
2023-04-04T19:04:03.290Z,6.80
2023-04-04T19:06:32.185Z,5.50
2023-04-04T19:09:03.917Z,5.10
2023-04-04T19:11:31.634Z,5.40
2023-04-04T19:13:58.193Z,8.30
2023-04-04T19:16:24.805Z,12.20
2023-04-04T19:18:51.882Z,11.90
2023-04-04T19:21:18.644Z,8.50
2023-04-04T19:23:46.372Z,7.20
2023-04-04T19:26:13.060Z,9.40
2023-04-04T19:28:40.570Z,10.90
2023-04-04T19:31:13.013Z,9.50
2023-04-04T19:33:39.705Z,8.40
2023-04-04T19:36:11.246Z,8.00
2023-04-04T19:38:40.477Z,7.90
2023-04-04T19:41:32.838Z,7.10
2023-04-04T19:43:59.351Z,8.50
2023-04-04T19:46:28.028Z,7.00
2023-04-04T19:48:59.000Z,6.10
2023-04-04T19:51:26.147Z,6.70
2023-04-04T19:53:57.403Z,7.80
2023-04-04T19:56:26.294Z,9.50
2023-04-04T19:59:05.719Z,6.40
2023-04-04T20:01:34.919Z,6.30
2023-04-04T20:04:09.821Z,5.50
2023-04-04T20:06:38.258Z,6.90
2023-04-04T20:09:14.769Z,6.70
2023-04-04T20:11:41.406Z,4.90
2023-04-04T20:14:09.920Z,6.10
2023-04-04T20:16:37.185Z,6.40
2023-04-04T20:19:08.463Z,7.20
2023-04-04T20:21:35.834Z,4.90
2023-04-04T20:24:08.160Z,5.30
2023-04-04T20:26:47.856Z,4.10
2023-04-04T20:29:16.937Z,4.60
2023-04-04T20:31:46.464Z,4.10
2023-04-04T20:34:25.812Z,3.90
2023-04-04T20:36:52.695Z,3.10
2023-04-04T20:39:38.914Z,3.60
2023-04-04T20:42:19.656Z,4.30
2023-04-04T20:44:46.798Z,5.00
2023-04-04T20:47:42.994Z,5.40
2023-04-04T20:50:16.068Z,4.60
2023-04-04T20:52:53.378Z,4.80
2023-04-04T20:55:22.652Z,3.70
2023-04-04T20:57:54.618Z,4.90
2023-04-04T21:00:31.375Z,4.20
2023-04-04T21:03:01.455Z,4.20
2023-04-04T21:05:34.301Z,4.70
2023-04-04T21:08:02.099Z,4.50
2023-04-04T21:10:28.611Z,4.20
2023-04-04T21:13:00.774Z,5.80
2023-04-04T21:15:29.014Z,8.60
2023-04-04T21:18:00.267Z,7.70
2023-04-04T21:20:44.930Z,8.50
2023-04-04T21:23:26.539Z,5.10
2023-04-04T21:26:09.059Z,6.50
2023-04-04T21:28:43.324Z,3.90
2023-04-04T21:31:15.873Z,5.40
2023-04-04T21:33:47.457Z,6.00
2023-04-04T21:36:24.001Z,4.00
2023-04-04T21:38:52.186Z,6.80
2023-04-04T21:41:26.084Z,3.70
2023-04-04T21:43:54.174Z,7.30
2023-04-04T21:46:24.441Z,8.60
2023-04-04T21:48:51.380Z,8.20
2023-04-04T21:51:18.152Z,8.30
2023-04-04T21:53:45.763Z,7.70
2023-04-04T21:56:13.781Z,8.20
2023-04-04T21:58:41.109Z,7.10
2023-04-04T22:01:08.827Z,8.50
2023-04-04T22:03:37.668Z,8.00
2023-04-04T22:06:04.522Z,7.70
2023-04-04T22:08:31.458Z,5.40
2023-04-04T22:11:01.784Z,5.30
2023-04-04T22:13:35.596Z,4.80
2023-04-04T22:16:06.463Z,6.90
2023-04-04T22:18:42.674Z,5.70
2023-04-04T22:21:10.858Z,6.00
2023-04-04T22:23:37.422Z,5.50
2023-04-04T22:26:09.425Z,4.70
2023-04-04T22:28:37.621Z,7.00
2023-04-04T22:31:06.112Z,5.60
2023-04-04T22:33:34.211Z,7.40
2023-04-04T22:36:01.963Z,5.50
2023-04-04T22:38:29.590Z,5.50
2023-04-04T22:40:57.500Z,7.30
2023-04-04T22:43:25.945Z,5.80
2023-04-04T22:45:53.479Z,5.40
2023-04-04T22:48:24.669Z,6.60
2023-04-04T22:50:55.999Z,6.00
2023-04-04T22:53:26.163Z,6.20
2023-04-04T22:55:53.922Z,6.90
2023-04-04T22:58:21.836Z,6.30
2023-04-04T23:00:48.932Z,5.90
2023-04-04T23:03:15.863Z,6.90
2023-04-04T23:05:42.961Z,6.20
2023-04-04T23:08:09.481Z,6.20
2023-04-04T23:10:36.682Z,6.70
2023-04-04T23:13:03.387Z,6.70
2023-04-04T23:15:32.342Z,9.50
2023-04-04T23:17:59.022Z,7.60
2023-04-04T23:20:25.790Z,6.60
2023-04-04T23:22:52.930Z,6.90
2023-04-04T23:25:19.927Z,5.30
2023-04-04T23:27:46.447Z,7.30
2023-04-04T23:30:13.233Z,9.90
2023-04-04T23:32:39.839Z,7.10
2023-04-04T23:35:06.781Z,7.00
2023-04-04T23:37:34.134Z,7.80
2023-04-04T23:40:00.765Z,10.70
2023-04-04T23:42:27.363Z,11.00
2023-04-04T23:44:53.817Z,10.40
2023-04-04T23:47:20.883Z,9.70
2023-04-04T23:49:47.465Z,9.50
2023-04-04T23:52:14.049Z,10.20
2023-04-04T23:54:40.820Z,7.70
2023-04-04T23:57:07.355Z,10.50
2023-04-04T23:59:34.163Z,11.00
